sensor_id;sensor_type;location;lat;lon;timestamp;P1;durP1;ratioP1;P2;durP2;ratioP2
351;SDS011;164;50.784;6.496;2022-09-01T00:00:05;7.75;;;7.35;;
351;SDS011;164;50.784;6.496;2022-09-01T00:02:38;6.60;;;6.20;;
351;SDS011;164;50.784;6.496;2022-09-01T00:05:07;7.05;;;6.65;;
351;SDS011;164;50.784;6.496;2022-09-01T00:07:34;9.18;;;7.43;;
351;SDS011;164;50.784;6.496;2022-09-01T00:10:03;8.10;;;6.95;;
351;SDS011;164;50.784;6.496;2022-09-01T00:12:33;6.50;;;6.10;;
351;SDS011;164;50.784;6.496;2022-09-01T00:15:00;6.88;;;6.47;;
351;SDS011;164;50.784;6.496;2022-09-01T00:17:28;7.57;;;7.18;;
351;SDS011;164;50.784;6.496;2022-09-01T00:19:56;7.63;;;7.22;;
351;SDS011;164;50.784;6.496;2022-09-01T00:22:23;7.35;;;6.95;;
351;SDS011;164;50.784;6.496;2022-09-01T00:24:50;7.72;;;7.32;;
351;SDS011;164;50.784;6.496;2022-09-01T00:27:17;6.80;;;6.40;;
351;SDS011;164;50.784;6.496;2022-09-01T00:29:44;7.60;;;7.20;;
351;SDS011;164;50.784;6.496;2022-09-01T00:32:11;7.25;;;6.85;;
351;SDS011;164;50.784;6.496;2022-09-01T00:34:39;9.68;;;8.93;;
351;SDS011;164;50.784;6.496;2022-09-01T00:37:07;8.63;;;8.13;;
351;SDS011;164;50.784;6.496;2022-09-01T00:39:34;7.88;;;7.47;;
351;SDS011;164;50.784;6.496;2022-09-01T00:42:01;7.13;;;6.72;;
351;SDS011;164;50.784;6.496;2022-09-01T00:44:28;7.43;;;7.03;;
351;SDS011;164;50.784;6.496;2022-09-01T00:46:56;10.27;;;7.40;;
351;SDS011;164;50.784;6.496;2022-09-01T00:49:25;7.40;;;7.00;;
351;SDS011;164;50.784;6.496;2022-09-01T00:51:56;8.77;;;8.27;;
351;SDS011;164;50.784;6.496;2022-09-01T00:54:28;8.27;;;7.88;;
351;SDS011;164;50.784;6.496;2022-09-01T00:56:58;8.52;;;6.82;;
351;SDS011;164;50.784;6.496;2022-09-01T00:59:27;7.85;;;7.45;;
351;SDS011;164;50.784;6.496;2022-09-01T01:01:55;7.38;;;7.00;;
351;SDS011;164;50.784;6.496;2022-09-01T01:04:22;7.70;;;7.30;;
351;SDS011;164;50.784;6.496;2022-09-01T01:06:51;8.10;;;7.70;;
351;SDS011;164;50.784;6.496;2022-09-01T01:09:28;8.48;;;8.02;;
351;SDS011;164;50.784;6.496;2022-09-01T01:11:58;8.65;;;8.13;;
351;SDS011;164;50.784;6.496;2022-09-01T01:14:27;8.00;;;7.60;;
351;SDS011;164;50.784;6.496;2022-09-01T01:16:56;7.80;;;7.40;;
351;SDS011;164;50.784;6.496;2022-09-01T01:19:27;7.97;;;7.45;;
351;SDS011;164;50.784;6.496;2022-09-01T01:22:21;8.27;;;7.85;;
351;SDS011;164;50.784;6.496;2022-09-01T01:25:11;7.95;;;7.55;;
351;SDS011;164;50.784;6.496;2022-09-01T01:27:38;8.10;;;7.70;;
351;SDS011;164;50.784;6.496;2022-09-01T01:30:07;7.72;;;7.32;;
351;SDS011;164;50.784;6.496;2022-09-01T01:32:36;7.50;;;7.10;;
351;SDS011;164;50.784;6.496;2022-09-01T01:35:12;8.23;;;7.82;;
351;SDS011;164;50.784;6.496;2022-09-01T01:37:41;9.52;;;9.02;;
351;SDS011;164;50.784;6.496;2022-09-01T01:40:16;8.27;;;7.88;;
351;SDS011;164;50.784;6.496;2022-09-01T01:42:47;8.73;;;8.23;;
351;SDS011;164;50.784;6.496;2022-09-01T01:45:16;8.18;;;7.75;;
351;SDS011;164;50.784;6.496;2022-09-01T01:47:45;10.38;;;8.70;;
351;SDS011;164;50.784;6.496;2022-09-01T01:50:17;8.25;;;7.82;;
351;SDS011;164;50.784;6.496;2022-09-01T01:52:45;7.88;;;7.07;;
351;SDS011;164;50.784;6.496;2022-09-01T01:55:12;7.78;;;7.38;;
351;SDS011;164;50.784;6.496;2022-09-01T01:57:43;8.02;;;7.63;;
351;SDS011;164;50.784;6.496;2022-09-01T02:00:15;8.05;;;7.65;;
351;SDS011;164;50.784;6.496;2022-09-01T02:02:45;8.73;;;8.23;;
351;SDS011;164;50.784;6.496;2022-09-01T02:10:29;7.72;;;7.32;;
351;SDS011;164;50.784;6.496;2022-09-01T02:12:58;8.70;;;8.23;;
351;SDS011;164;50.784;6.496;2022-09-01T02:15:31;8.90;;;8.40;;
351;SDS011;164;50.784;6.496;2022-09-01T02:18:08;8.60;;;8.13;;
351;SDS011;164;50.784;6.496;2022-09-01T02:20:37;7.97;;;7.65;;
351;SDS011;164;50.784;6.496;2022-09-01T02:23:05;8.88;;;8.38;;
351;SDS011;164;50.784;6.496;2022-09-01T02:25:36;8.00;;;7.60;;
351;SDS011;164;50.784;6.496;2022-09-01T02:28:08;8.07;;;7.68;;
351;SDS011;164;50.784;6.496;2022-09-01T02:30:36;8.90;;;8.40;;
351;SDS011;164;50.784;6.496;2022-09-01T02:33:05;9.48;;;8.98;;
351;SDS011;164;50.784;6.496;2022-09-01T02:35:33;7.95;;;7.55;;
351;SDS011;164;50.784;6.496;2022-09-01T02:38:01;8.10;;;7.70;;
351;SDS011;164;50.784;6.496;2022-09-01T02:40:29;9.98;;;9.48;;
351;SDS011;164;50.784;6.496;2022-09-01T02:42:59;8.93;;;8.43;;
351;SDS011;164;50.784;6.496;2022-09-01T02:45:26;9.50;;;9.00;;
351;SDS011;164;50.784;6.496;2022-09-01T02:47:54;8.90;;;8.38;;
351;SDS011;164;50.784;6.496;2022-09-01T02:50:21;7.72;;;7.32;;
351;SDS011;164;50.784;6.496;2022-09-01T02:52:49;8.27;;;7.75;;
351;SDS011;164;50.784;6.496;2022-09-01T02:55:18;8.60;;;8.10;;
351;SDS011;164;50.784;6.496;2022-09-01T02:57:46;8.85;;;8.35;;
351;SDS011;164;50.784;6.496;2022-09-01T03:00:16;8.75;;;8.25;;
351;SDS011;164;50.784;6.496;2022-09-01T03:02:53;9.10;;;8.60;;
351;SDS011;164;50.784;6.496;2022-09-01T03:11:36;8.27;;;7.88;;
351;SDS011;164;50.784;6.496;2022-09-01T03:14:08;7.85;;;7.45;;
351;SDS011;164;50.784;6.496;2022-09-01T03:16:37;8.50;;;8.00;;
351;SDS011;164;50.784;6.496;2022-09-01T03:19:05;8.05;;;7.65;;
351;SDS011;164;50.784;6.496;2022-09-01T03:21:33;8.23;;;7.82;;
351;SDS011;164;50.784;6.496;2022-09-01T03:24:01;9.43;;;8.27;;
351;SDS011;164;50.784;6.496;2022-09-01T03:26:28;8.20;;;7.80;;
351;SDS011;164;50.784;6.496;2022-09-01T03:28:56;8.65;;;8.18;;
351;SDS011;164;50.784;6.496;2022-09-01T03:31:23;8.23;;;7.82;;
351;SDS011;164;50.784;6.496;2022-09-01T03:33:54;8.70;;;8.20;;
351;SDS011;164;50.784;6.496;2022-09-01T03:36:21;7.88;;;7.45;;
351;SDS011;164;50.784;6.496;2022-09-01T03:38:49;7.93;;;7.53;;
351;SDS011;164;50.784;6.496;2022-09-01T03:41:17;8.40;;;7.95;;
351;SDS011;164;50.784;6.496;2022-09-01T03:43:46;9.20;;;8.70;;
351;SDS011;164;50.784;6.496;2022-09-01T03:46:14;7.95;;;7.55;;
351;SDS011;164;50.784;6.496;2022-09-01T03:48:45;8.15;;;7.75;;
351;SDS011;164;50.784;6.496;2022-09-01T03:51:14;9.02;;;8.52;;
351;SDS011;164;50.784;6.496;2022-09-01T03:53:42;8.10;;;7.70;;
351;SDS011;164;50.784;6.496;2022-09-01T03:56:10;8.48;;;8.00;;
351;SDS011;164;50.784;6.496;2022-09-01T03:58:38;8.57;;;8.07;;
351;SDS011;164;50.784;6.496;2022-09-01T04:01:06;8.25;;;7.85;;
351;SDS011;164;50.784;6.496;2022-09-01T04:03:35;8.77;;;8.27;;
351;SDS011;164;50.784;6.496;2022-09-01T04:06:06;8.88;;;8.38;;
351;SDS011;164;50.784;6.496;2022-09-01T04:08:35;8.52;;;8.02;;
351;SDS011;164;50.784;6.496;2022-09-01T04:11:04;8.88;;;8.38;;
351;SDS011;164;50.784;6.496;2022-09-01T04:13:38;8.73;;;8.23;;
351;SDS011;164;50.784;6.496;2022-09-01T04:16:06;7.90;;;7.50;;
351;SDS011;164;50.784;6.496;2022-09-01T04:19:04;7.45;;;7.05;;
351;SDS011;164;50.784;6.496;2022-09-01T04:21:39;8.52;;;8.05;;
351;SDS011;164;50.784;6.496;2022-09-01T04:24:09;9.20;;;8.70;;
351;SDS011;164;50.784;6.496;2022-09-01T04:26:39;8.70;;;8.20;;
351;SDS011;164;50.784;6.496;2022-09-01T04:29:06;7.50;;;7.10;;
351;SDS011;164;50.784;6.496;2022-09-01T04:31:35;7.72;;;7.32;;
351;SDS011;164;50.784;6.496;2022-09-01T04:34:04;8.73;;;8.23;;
351;SDS011;164;50.784;6.496;2022-09-01T04:36:37;8.57;;;8.07;;
351;SDS011;164;50.784;6.496;2022-09-01T04:39:06;9.40;;;8.90;;
351;SDS011;164;50.784;6.496;2022-09-01T04:41:36;9.98;;;9.48;;
351;SDS011;164;50.784;6.496;2022-09-01T04:44:06;9.40;;;8.90;;
351;SDS011;164;50.784;6.496;2022-09-01T04:46:34;8.75;;;8.25;;
351;SDS011;164;50.784;6.496;2022-09-01T04:49:07;8.35;;;7.93;;
351;SDS011;164;50.784;6.496;2022-09-01T04:51:36;8.05;;;7.60;;
351;SDS011;164;50.784;6.496;2022-09-01T04:54:04;8.10;;;7.70;;
351;SDS011;164;50.784;6.496;2022-09-01T04:56:33;9.00;;;8.50;;
351;SDS011;164;50.784;6.496;2022-09-01T04:59:02;9.30;;;8.80;;
351;SDS011;164;50.784;6.496;2022-09-01T05:01:31;8.75;;;8.25;;
351;SDS011;164;50.784;6.496;2022-09-01T05:04:07;8.93;;;8.43;;
351;SDS011;164;50.784;6.496;2022-09-01T05:06:38;10.00;;;9.50;;
351;SDS011;164;50.784;6.496;2022-09-01T05:09:06;9.38;;;8.88;;
351;SDS011;164;50.784;6.496;2022-09-01T05:14:05;9.30;;;8.80;;
351;SDS011;164;50.784;6.496;2022-09-01T05:16:32;9.13;;;8.63;;
351;SDS011;164;50.784;6.496;2022-09-01T05:19:05;8.93;;;8.43;;
351;SDS011;164;50.784;6.496;2022-09-01T05:21:39;9.52;;;9.02;;
351;SDS011;164;50.784;6.496;2022-09-01T05:24:09;8.23;;;7.82;;
351;SDS011;164;50.784;6.496;2022-09-01T05:26:39;8.60;;;8.10;;
351;SDS011;164;50.784;6.496;2022-09-01T05:29:08;8.27;;;7.85;;
351;SDS011;164;50.784;6.496;2022-09-01T05:31:42;8.50;;;8.00;;
351;SDS011;164;50.784;6.496;2022-09-01T05:34:10;8.70;;;8.20;;
351;SDS011;164;50.784;6.496;2022-09-01T05:36:40;8.00;;;7.60;;
351;SDS011;164;50.784;6.496;2022-09-01T05:39:09;8.82;;;8.32;;
351;SDS011;164;50.784;6.496;2022-09-01T05:41:36;8.90;;;8.40;;
351;SDS011;164;50.784;6.496;2022-09-01T05:44:05;8.25;;;7.85;;
351;SDS011;164;50.784;6.496;2022-09-01T05:46:33;8.27;;;7.85;;
351;SDS011;164;50.784;6.496;2022-09-01T05:49:02;8.95;;;8.45;;
351;SDS011;164;50.784;6.496;2022-09-01T05:51:31;8.75;;;8.25;;
351;SDS011;164;50.784;6.496;2022-09-01T05:53:59;7.68;;;7.28;;
351;SDS011;164;50.784;6.496;2022-09-01T05:56:27;7.40;;;7.00;;
351;SDS011;164;50.784;6.496;2022-09-01T05:58:58;8.30;;;7.88;;
351;SDS011;164;50.784;6.496;2022-09-01T06:01:27;8.70;;;8.20;;
351;SDS011;164;50.784;6.496;2022-09-01T06:03:58;8.40;;;7.95;;
351;SDS011;164;50.784;6.496;2022-09-01T06:06:28;8.13;;;7.72;;
351;SDS011;164;50.784;6.496;2022-09-01T06:09:02;8.45;;;7.97;;
351;SDS011;164;50.784;6.496;2022-09-01T06:11:30;8.00;;;7.60;;
351;SDS011;164;50.784;6.496;2022-09-01T06:13:59;8.90;;;8.40;;
351;SDS011;164;50.784;6.496;2022-09-01T06:16:27;8.27;;;7.85;;
351;SDS011;164;50.784;6.496;2022-09-01T06:18:55;9.05;;;8.55;;
351;SDS011;164;50.784;6.496;2022-09-01T06:21:23;8.98;;;8.48;;
351;SDS011;164;50.784;6.496;2022-09-01T06:23:53;9.13;;;8.63;;
351;SDS011;164;50.784;6.496;2022-09-01T06:26:23;7.78;;;7.38;;
351;SDS011;164;50.784;6.496;2022-09-01T06:28:53;8.18;;;7.78;;
351;SDS011;164;50.784;6.496;2022-09-01T06:31:24;8.50;;;8.00;;
351;SDS011;164;50.784;6.496;2022-09-01T06:33:59;8.52;;;8.05;;
351;SDS011;164;50.784;6.496;2022-09-01T06:36:29;8.15;;;7.75;;
351;SDS011;164;50.784;6.496;2022-09-01T06:38:57;7.82;;;7.43;;
351;SDS011;164;50.784;6.496;2022-09-01T06:41:25;7.20;;;6.80;;
351;SDS011;164;50.784;6.496;2022-09-01T06:43:55;7.70;;;7.30;;
351;SDS011;164;50.784;6.496;2022-09-01T06:46:26;6.88;;;6.47;;
351;SDS011;164;50.784;6.496;2022-09-01T06:48:54;6.90;;;6.50;;
351;SDS011;164;50.784;6.496;2022-09-01T06:51:23;6.75;;;6.35;;
351;SDS011;164;50.784;6.496;2022-09-01T06:53:52;5.43;;;5.13;;
351;SDS011;164;50.784;6.496;2022-09-01T06:56:23;6.30;;;5.95;;
351;SDS011;164;50.784;6.496;2022-09-01T06:58:52;5.88;;;5.57;;
351;SDS011;164;50.784;6.496;2022-09-01T07:01:20;5.00;;;4.70;;
351;SDS011;164;50.784;6.496;2022-09-01T07:03:53;5.22;;;4.93;;
351;SDS011;164;50.784;6.496;2022-09-01T07:06:21;4.78;;;4.47;;
351;SDS011;164;50.784;6.496;2022-09-01T07:08:52;5.30;;;5.00;;
351;SDS011;164;50.784;6.496;2022-09-01T07:11:21;4.60;;;4.30;;
351;SDS011;164;50.784;6.496;2022-09-01T07:13:52;4.45;;;4.15;;
351;SDS011;164;50.784;6.496;2022-09-01T07:16:20;4.85;;;4.55;;
351;SDS011;164;50.784;6.496;2022-09-01T07:18:48;4.60;;;3.92;;
351;SDS011;164;50.784;6.496;2022-09-01T07:21:17;4.05;;;3.83;;
351;SDS011;164;50.784;6.496;2022-09-01T07:23:45;4.05;;;3.85;;
351;SDS011;164;50.784;6.496;2022-09-01T07:26:12;4.10;;;3.90;;
351;SDS011;164;50.784;6.496;2022-09-01T07:28:42;3.75;;;3.55;;
351;SDS011;164;50.784;6.496;2022-09-01T07:31:15;3.72;;;3.53;;
351;SDS011;164;50.784;6.496;2022-09-01T07:33:45;3.75;;;3.55;;
351;SDS011;164;50.784;6.496;2022-09-01T07:36:13;3.15;;;2.95;;
351;SDS011;164;50.784;6.496;2022-09-01T07:38:41;4.35;;;4.05;;
351;SDS011;164;50.784;6.496;2022-09-01T07:41:08;3.80;;;3.60;;
351;SDS011;164;50.784;6.496;2022-09-01T07:43:37;3.95;;;3.38;;
351;SDS011;164;50.784;6.496;2022-09-01T07:46:09;3.95;;;3.38;;
351;SDS011;164;50.784;6.496;2022-09-01T07:48:37;3.55;;;3.35;;
351;SDS011;164;50.784;6.496;2022-09-01T07:51:04;3.83;;;3.63;;
351;SDS011;164;50.784;6.496;2022-09-01T07:53:33;4.55;;;3.65;;
351;SDS011;164;50.784;6.496;2022-09-01T07:56:05;3.25;;;3.05;;
351;SDS011;164;50.784;6.496;2022-09-01T07:58:35;4.03;;;3.08;;
351;SDS011;164;50.784;6.496;2022-09-01T08:01:05;3.42;;;3.15;;
351;SDS011;164;50.784;6.496;2022-09-01T08:03:33;4.30;;;3.60;;
351;SDS011;164;50.784;6.496;2022-09-01T08:06:01;4.18;;;3.60;;
351;SDS011;164;50.784;6.496;2022-09-01T08:08:30;4.35;;;4.07;;
351;SDS011;164;50.784;6.496;2022-09-01T08:10:58;2.97;;;2.75;;
351;SDS011;164;50.784;6.496;2022-09-01T08:13:26;3.65;;;3.45;;
351;SDS011;164;50.784;6.496;2022-09-01T08:15:53;3.85;;;3.72;;
351;SDS011;164;50.784;6.496;2022-09-01T08:18:20;4.45;;;4.15;;
351;SDS011;164;50.784;6.496;2022-09-01T08:20:48;4.80;;;3.53;;
351;SDS011;164;50.784;6.496;2022-09-01T08:23:16;3.25;;;3.05;;
351;SDS011;164;50.784;6.496;2022-09-01T08:25:44;3.60;;;3.28;;
351;SDS011;164;50.784;6.496;2022-09-01T08:28:13;2.50;;;2.30;;
351;SDS011;164;50.784;6.496;2022-09-01T08:30:42;4.45;;;2.35;;
351;SDS011;164;50.784;6.496;2022-09-01T08:33:10;3.00;;;2.78;;
351;SDS011;164;50.784;6.496;2022-09-01T08:35:38;2.47;;;2.28;;
351;SDS011;164;50.784;6.496;2022-09-01T08:38:06;3.38;;;2.95;;
351;SDS011;164;50.784;6.496;2022-09-01T08:40:34;2.40;;;2.20;;
351;SDS011;164;50.784;6.496;2022-09-01T08:43:04;1.98;;;1.90;;
351;SDS011;164;50.784;6.496;2022-09-01T08:45:41;11.50;;;3.05;;
351;SDS011;164;50.784;6.496;2022-09-01T08:48:15;2.40;;;2.05;;
351;SDS011;164;50.784;6.496;2022-09-01T08:50:46;4.85;;;2.40;;
351;SDS011;164;50.784;6.496;2022-09-01T08:53:21;2.65;;;2.30;;
351;SDS011;164;50.784;6.496;2022-09-01T08:55:54;2.25;;;2.05;;
351;SDS011;164;50.784;6.496;2022-09-01T08:58:22;1.95;;;1.83;;
351;SDS011;164;50.784;6.496;2022-09-01T09:00:53;2.25;;;2.05;;
351;SDS011;164;50.784;6.496;2022-09-01T09:03:25;4.07;;;2.20;;
351;SDS011;164;50.784;6.496;2022-09-01T09:06:06;2.92;;;2.20;;
351;SDS011;164;50.784;6.496;2022-09-01T09:14:39;4.43;;;2.60;;
351;SDS011;164;50.784;6.496;2022-09-01T09:17:21;4.22;;;2.45;;
351;SDS011;164;50.784;6.496;2022-09-01T09:19:54;2.75;;;1.95;;
351;SDS011;164;50.784;6.496;2022-09-01T09:22:21;2.65;;;2.53;;
351;SDS011;164;50.784;6.496;2022-09-01T09:24:49;3.50;;;2.15;;
351;SDS011;164;50.784;6.496;2022-09-01T09:27:20;3.72;;;2.55;;
351;SDS011;164;50.784;6.496;2022-09-01T09:29:48;2.25;;;2.05;;
351;SDS011;164;50.784;6.496;2022-09-01T09:32:17;3.90;;;2.20;;
351;SDS011;164;50.784;6.496;2022-09-01T09:34:47;3.53;;;2.67;;
351;SDS011;164;50.784;6.496;2022-09-01T09:37:24;2.72;;;1.75;;
351;SDS011;164;50.784;6.496;2022-09-01T09:40:00;1.75;;;1.60;;
351;SDS011;164;50.784;6.496;2022-09-01T09:42:34;2.40;;;1.80;;
351;SDS011;164;50.784;6.496;2022-09-01T09:45:04;2.90;;;1.80;;
351;SDS011;164;50.784;6.496;2022-09-01T09:47:44;2.45;;;1.52;;
351;SDS011;164;50.784;6.496;2022-09-01T09:50:24;2.90;;;2.70;;
351;SDS011;164;50.784;6.496;2022-09-01T09:55:48;1.15;;;1.05;;
351;SDS011;164;50.784;6.496;2022-09-01T09:58:24;1.17;;;1.15;;
351;SDS011;164;50.784;6.496;2022-09-01T10:00:58;2.60;;;1.35;;
351;SDS011;164;50.784;6.496;2022-09-01T10:03:35;1.90;;;1.60;;
351;SDS011;164;50.784;6.496;2022-09-01T10:06:10;1.95;;;1.23;;
351;SDS011;164;50.784;6.496;2022-09-01T10:08:41;3.45;;;2.10;;
351;SDS011;164;50.784;6.496;2022-09-01T10:11:24;1.20;;;1.17;;
351;SDS011;164;50.784;6.496;2022-09-01T10:13:54;1.95;;;1.33;;
351;SDS011;164;50.784;6.496;2022-09-01T10:16:23;3.45;;;1.80;;
351;SDS011;164;50.784;6.496;2022-09-01T10:18:54;2.08;;;1.30;;
351;SDS011;164;50.784;6.496;2022-09-01T10:21:27;1.55;;;1.23;;
351;SDS011;164;50.784;6.496;2022-09-01T10:23:58;1.67;;;1.42;;
351;SDS011;164;50.784;6.496;2022-09-01T10:26:30;4.03;;;1.80;;
351;SDS011;164;50.784;6.496;2022-09-01T10:29:03;1.65;;;1.58;;
351;SDS011;164;50.784;6.496;2022-09-01T10:31:33;1.65;;;1.52;;
351;SDS011;164;50.784;6.496;2022-09-01T10:34:02;2.97;;;1.70;;
351;SDS011;164;50.784;6.496;2022-09-01T10:36:32;3.05;;;1.75;;
351;SDS011;164;50.784;6.496;2022-09-01T10:39:01;1.60;;;1.20;;
351;SDS011;164;50.784;6.496;2022-09-01T10:41:48;1.95;;;1.30;;
351;SDS011;164;50.784;6.496;2022-09-01T10:44:18;4.45;;;1.73;;
351;SDS011;164;50.784;6.496;2022-09-01T10:46:47;2.78;;;1.38;;
351;SDS011;164;50.784;6.496;2022-09-01T10:49:20;3.22;;;1.55;;
351;SDS011;164;50.784;6.496;2022-09-01T10:55:16;1.65;;;1.30;;
351;SDS011;164;50.784;6.496;2022-09-01T10:57:49;1.02;;;1.00;;
351;SDS011;164;50.784;6.496;2022-09-01T11:09:23;1.03;;;1.03;;
351;SDS011;164;50.784;6.496;2022-09-01T11:12:02;1.93;;;1.40;;
351;SDS011;164;50.784;6.496;2022-09-01T11:14:48;1.67;;;1.60;;
351;SDS011;164;50.784;6.496;2022-09-01T11:17:18;1.87;;;1.30;;
351;SDS011;164;50.784;6.496;2022-09-01T11:19:53;2.83;;;1.67;;
351;SDS011;164;50.784;6.496;2022-09-01T11:22:27;2.37;;;1.63;;
351;SDS011;164;50.784;6.496;2022-09-01T11:25:05;1.53;;;1.23;;
351;SDS011;164;50.784;6.496;2022-09-01T11:28:08;1.50;;;1.43;;
351;SDS011;164;50.784;6.496;2022-09-01T11:30:56;5.13;;;1.47;;
351;SDS011;164;50.784;6.496;2022-09-01T11:36:13;4.00;;;1.97;;
351;SDS011;164;50.784;6.496;2022-09-01T11:38:48;2.00;;;1.90;;
351;SDS011;164;50.784;6.496;2022-09-01T11:41:22;1.63;;;1.47;;
351;SDS011;164;50.784;6.496;2022-09-01T11:43:54;1.77;;;1.70;;
351;SDS011;164;50.784;6.496;2022-09-01T11:46:25;1.80;;;1.73;;
351;SDS011;164;50.784;6.496;2022-09-01T11:48:54;1.90;;;1.63;;
351;SDS011;164;50.784;6.496;2022-09-01T11:51:23;1.90;;;1.80;;
351;SDS011;164;50.784;6.496;2022-09-01T11:53:50;2.00;;;1.70;;
351;SDS011;164;50.784;6.496;2022-09-01T11:56:25;3.20;;;2.03;;
351;SDS011;164;50.784;6.496;2022-09-01T11:58:54;5.63;;;2.20;;
351;SDS011;164;50.784;6.496;2022-09-01T12:01:22;3.43;;;1.80;;
351;SDS011;164;50.784;6.496;2022-09-01T12:03:57;1.90;;;1.80;;
351;SDS011;164;50.784;6.496;2022-09-01T12:06:50;2.17;;;1.47;;
351;SDS011;164;50.784;6.496;2022-09-01T12:09:19;2.23;;;2.03;;
351;SDS011;164;50.784;6.496;2022-09-01T12:11:46;3.50;;;1.70;;
351;SDS011;164;50.784;6.496;2022-09-01T12:14:20;6.00;;;1.67;;
351;SDS011;164;50.784;6.496;2022-09-01T12:16:55;3.60;;;1.83;;
351;SDS011;164;50.784;6.496;2022-09-01T12:19:25;1.70;;;1.70;;
351;SDS011;164;50.784;6.496;2022-09-01T12:22:01;3.67;;;1.80;;
351;SDS011;164;50.784;6.496;2022-09-01T12:24:30;2.00;;;1.90;;
351;SDS011;164;50.784;6.496;2022-09-01T12:26:59;1.70;;;1.53;;
351;SDS011;164;50.784;6.496;2022-09-01T12:29:28;1.73;;;1.67;;
351;SDS011;164;50.784;6.496;2022-09-01T12:31:57;1.97;;;1.90;;
351;SDS011;164;50.784;6.496;2022-09-01T12:34:26;2.20;;;2.00;;
351;SDS011;164;50.784;6.496;2022-09-01T12:37:08;2.07;;;1.47;;
351;SDS011;164;50.784;6.496;2022-09-01T12:39:38;1.87;;;1.77;;
351;SDS011;164;50.784;6.496;2022-09-01T12:42:08;2.37;;;2.17;;
351;SDS011;164;50.784;6.496;2022-09-01T12:44:48;2.20;;;2.00;;
351;SDS011;164;50.784;6.496;2022-09-01T12:53:15;2.53;;;2.37;;
351;SDS011;164;50.784;6.496;2022-09-01T12:55:55;2.77;;;2.00;;
351;SDS011;164;50.784;6.496;2022-09-01T12:58:26;2.27;;;2.07;;
351;SDS011;164;50.784;6.496;2022-09-01T13:00:57;3.80;;;2.60;;
351;SDS011;164;50.784;6.496;2022-09-01T13:03:26;3.23;;;2.77;;
351;SDS011;164;50.784;6.496;2022-09-01T13:05:54;3.77;;;2.23;;
351;SDS011;164;50.784;6.496;2022-09-01T13:08:24;2.13;;;1.80;;
351;SDS011;164;50.784;6.496;2022-09-01T13:10:53;2.87;;;2.70;;
351;SDS011;164;50.784;6.496;2022-09-01T13:13:22;5.60;;;2.20;;
351;SDS011;164;50.784;6.496;2022-09-01T13:15:51;2.07;;;1.93;;
351;SDS011;164;50.784;6.496;2022-09-01T13:18:22;2.93;;;1.70;;
351;SDS011;164;50.784;6.496;2022-09-01T13:20:50;2.60;;;1.77;;
351;SDS011;164;50.784;6.496;2022-09-01T13:23:18;2.20;;;2.00;;
351;SDS011;164;50.784;6.496;2022-09-01T13:25:46;2.07;;;1.93;;
351;SDS011;164;50.784;6.496;2022-09-01T13:28:14;2.30;;;2.03;;
351;SDS011;164;50.784;6.496;2022-09-01T13:30:42;3.60;;;2.20;;
351;SDS011;164;50.784;6.496;2022-09-01T13:33:11;1.90;;;1.80;;
351;SDS011;164;50.784;6.496;2022-09-01T13:35:40;2.50;;;2.30;;
351;SDS011;164;50.784;6.496;2022-09-01T13:38:07;2.07;;;1.93;;
351;SDS011;164;50.784;6.496;2022-09-01T13:40:34;2.77;;;2.60;;
351;SDS011;164;50.784;6.496;2022-09-01T13:43:01;2.50;;;2.30;;
351;SDS011;164;50.784;6.496;2022-09-01T13:45:29;2.07;;;1.80;;
351;SDS011;164;50.784;6.496;2022-09-01T13:47:56;2.20;;;2.00;;
351;SDS011;164;50.784;6.496;2022-09-01T13:50:25;2.40;;;2.20;;
351;SDS011;164;50.784;6.496;2022-09-01T13:52:54;2.37;;;2.17;;
351;SDS011;164;50.784;6.496;2022-09-01T13:55:23;3.33;;;2.20;;
351;SDS011;164;50.784;6.496;2022-09-01T13:57:51;2.20;;;2.00;;
351;SDS011;164;50.784;6.496;2022-09-01T14:00:20;1.83;;;1.80;;
351;SDS011;164;50.784;6.496;2022-09-01T14:02:50;2.23;;;2.03;;
351;SDS011;164;50.784;6.496;2022-09-01T14:05:20;2.57;;;2.37;;
351;SDS011;164;50.784;6.496;2022-09-01T14:07:48;2.90;;;2.27;;
351;SDS011;164;50.784;6.496;2022-09-01T14:10:17;2.60;;;2.40;;
351;SDS011;164;50.784;6.496;2022-09-01T14:12:45;2.50;;;1.80;;
351;SDS011;164;50.784;6.496;2022-09-01T14:15:14;3.20;;;1.90;;
351;SDS011;164;50.784;6.496;2022-09-01T14:17:43;4.07;;;1.80;;
351;SDS011;164;50.784;6.496;2022-09-01T14:20:12;2.90;;;2.13;;
351;SDS011;164;50.784;6.496;2022-09-01T14:22:42;2.20;;;2.00;;
351;SDS011;164;50.784;6.496;2022-09-01T14:25:09;1.87;;;1.77;;
351;SDS011;164;50.784;6.496;2022-09-01T14:27:39;2.97;;;2.17;;
351;SDS011;164;50.784;6.496;2022-09-01T14:30:07;4.33;;;2.37;;
351;SDS011;164;50.784;6.496;2022-09-01T14:32:37;2.80;;;2.13;;
351;SDS011;164;50.784;6.496;2022-09-01T14:35:04;2.30;;;2.10;;
351;SDS011;164;50.784;6.496;2022-09-01T14:37:32;3.10;;;2.40;;
351;SDS011;164;50.784;6.496;2022-09-01T14:40:00;2.67;;;2.47;;
351;SDS011;164;50.784;6.496;2022-09-01T14:42:28;2.50;;;2.30;;
351;SDS011;164;50.784;6.496;2022-09-01T14:44:57;4.40;;;2.53;;
351;SDS011;164;50.784;6.496;2022-09-01T14:47:24;3.50;;;2.37;;
351;SDS011;164;50.784;6.496;2022-09-01T14:49:51;2.53;;;2.33;;
351;SDS011;164;50.784;6.496;2022-09-01T14:52:19;3.30;;;1.97;;
351;SDS011;164;50.784;6.496;2022-09-01T14:54:46;3.67;;;2.40;;
351;SDS011;164;50.784;6.496;2022-09-01T14:57:14;4.33;;;2.70;;
351;SDS011;164;50.784;6.496;2022-09-01T14:59:41;3.33;;;2.03;;
351;SDS011;164;50.784;6.496;2022-09-01T15:02:09;2.20;;;2.00;;
351;SDS011;164;50.784;6.496;2022-09-01T15:04:36;3.07;;;2.57;;
351;SDS011;164;50.784;6.496;2022-09-01T15:07:03;2.97;;;2.13;;
351;SDS011;164;50.784;6.496;2022-09-01T15:09:31;2.20;;;2.00;;
351;SDS011;164;50.784;6.496;2022-09-01T15:11:58;3.60;;;2.17;;
351;SDS011;164;50.784;6.496;2022-09-01T15:14:26;2.80;;;2.17;;
351;SDS011;164;50.784;6.496;2022-09-01T15:16:53;2.27;;;2.07;;
351;SDS011;164;50.784;6.496;2022-09-01T15:19:21;2.37;;;2.17;;
351;SDS011;164;50.784;6.496;2022-09-01T15:21:48;1.90;;;1.80;;
351;SDS011;164;50.784;6.496;2022-09-01T15:24:15;5.27;;;1.73;;
351;SDS011;164;50.784;6.496;2022-09-01T15:26:43;2.50;;;1.90;;
351;SDS011;164;50.784;6.496;2022-09-01T15:29:10;1.87;;;1.77;;
351;SDS011;164;50.784;6.496;2022-09-01T15:31:39;4.17;;;2.60;;
351;SDS011;164;50.784;6.496;2022-09-01T15:34:08;2.30;;;2.10;;
351;SDS011;164;50.784;6.496;2022-09-01T15:36:38;3.20;;;2.00;;
351;SDS011;164;50.784;6.496;2022-09-01T15:39:06;2.33;;;2.13;;
351;SDS011;164;50.784;6.496;2022-09-01T15:41:34;2.23;;;2.03;;
351;SDS011;164;50.784;6.496;2022-09-01T15:44:02;1.93;;;1.83;;
351;SDS011;164;50.784;6.496;2022-09-01T15:46:31;3.67;;;2.00;;
351;SDS011;164;50.784;6.496;2022-09-01T15:48:58;2.30;;;2.10;;
351;SDS011;164;50.784;6.496;2022-09-01T15:51:26;4.10;;;2.00;;
351;SDS011;164;50.784;6.496;2022-09-01T15:53:58;4.90;;;1.90;;
351;SDS011;164;50.784;6.496;2022-09-01T15:56:27;2.63;;;1.70;;
351;SDS011;164;50.784;6.496;2022-09-01T15:58:56;2.70;;;2.33;;
351;SDS011;164;50.784;6.496;2022-09-01T16:01:24;2.27;;;2.00;;
351;SDS011;164;50.784;6.496;2022-09-01T16:03:52;2.30;;;2.07;;
351;SDS011;164;50.784;6.496;2022-09-01T16:06:20;1.93;;;1.80;;
351;SDS011;164;50.784;6.496;2022-09-01T16:08:48;2.50;;;2.23;;
351;SDS011;164;50.784;6.496;2022-09-01T16:11:19;2.40;;;2.20;;
351;SDS011;164;50.784;6.496;2022-09-01T16:13:47;3.37;;;2.10;;
351;SDS011;164;50.784;6.496;2022-09-01T16:16:30;2.90;;;2.63;;
351;SDS011;164;50.784;6.496;2022-09-01T16:19:03;1.80;;;1.70;;
351;SDS011;164;50.784;6.496;2022-09-01T16:21:39;2.37;;;2.20;;
351;SDS011;164;50.784;6.496;2022-09-01T16:24:13;5.00;;;2.13;;
351;SDS011;164;50.784;6.496;2022-09-01T16:26:41;2.20;;;2.00;;
351;SDS011;164;50.784;6.496;2022-09-01T16:29:13;2.57;;;1.87;;
351;SDS011;164;50.784;6.496;2022-09-01T16:31:46;1.90;;;1.80;;
351;SDS011;164;50.784;6.496;2022-09-01T16:34:15;3.30;;;2.10;;
351;SDS011;164;50.784;6.496;2022-09-01T16:36:48;2.97;;;1.90;;
351;SDS011;164;50.784;6.496;2022-09-01T16:39:24;2.77;;;2.57;;
351;SDS011;164;50.784;6.496;2022-09-01T16:42:01;2.20;;;2.00;;
351;SDS011;164;50.784;6.496;2022-09-01T16:44:50;3.10;;;2.23;;
351;SDS011;164;50.784;6.496;2022-09-01T16:47:31;2.83;;;2.63;;